sensor_id;sensor_type;location;lat;lon;timestamp;P1;durP1;ratioP1;P2;durP2;ratioP2
22557;SDS011;11445;53.816;8.902;2022-12-10T00:02:18;60.00;;;24.35;;
22557;SDS011;11445;53.816;8.902;2022-12-10T00:04:45;58.35;;;24.70;;
22557;SDS011;11445;53.816;8.902;2022-12-10T00:07:12;56.85;;;22.60;;
22557;SDS011;11445;53.816;8.902;2022-12-10T00:09:39;57.03;;;23.30;;
22557;SDS011;11445;53.816;8.902;2022-12-10T00:12:06;56.35;;;22.90;;
22557;SDS011;11445;53.816;8.902;2022-12-10T00:14:34;58.63;;;22.95;;
22557;SDS011;11445;53.816;8.902;2022-12-10T00:17:01;62.60;;;24.17;;
22557;SDS011;11445;53.816;8.902;2022-12-10T00:19:28;58.55;;;22.70;;
22557;SDS011;11445;53.816;8.902;2022-12-10T00:21:56;55.20;;;23.80;;
22557;SDS011;11445;53.816;8.902;2022-12-10T00:24:23;56.83;;;22.52;;
22557;SDS011;11445;53.816;8.902;2022-12-10T00:26:50;59.00;;;23.42;;
22557;SDS011;11445;53.816;8.902;2022-12-10T00:29:17;58.35;;;21.70;;
22557;SDS011;11445;53.816;8.902;2022-12-10T00:31:45;58.78;;;22.77;;
22557;SDS011;11445;53.816;8.902;2022-12-10T00:34:12;60.55;;;23.40;;
22557;SDS011;11445;53.816;8.902;2022-12-10T00:36:40;60.67;;;22.63;;
22557;SDS011;11445;53.816;8.902;2022-12-10T00:39:09;57.55;;;23.35;;
22557;SDS011;11445;53.816;8.902;2022-12-10T00:41:37;53.90;;;21.95;;
22557;SDS011;11445;53.816;8.902;2022-12-10T00:44:04;57.58;;;22.77;;
22557;SDS011;11445;53.816;8.902;2022-12-10T00:46:31;61.13;;;23.27;;
22557;SDS011;11445;53.816;8.902;2022-12-10T00:49:00;58.53;;;24.05;;
22557;SDS011;11445;53.816;8.902;2022-12-10T00:51:28;60.08;;;23.48;;
22557;SDS011;11445;53.816;8.902;2022-12-10T00:53:56;56.38;;;22.55;;
22557;SDS011;11445;53.816;8.902;2022-12-10T00:56:24;64.20;;;23.73;;
22557;SDS011;11445;53.816;8.902;2022-12-10T00:58:52;55.47;;;22.48;;
22557;SDS011;11445;53.816;8.902;2022-12-10T01:01:20;58.13;;;21.98;;
22557;SDS011;11445;53.816;8.902;2022-12-10T01:03:51;57.97;;;21.75;;
22557;SDS011;11445;53.816;8.902;2022-12-10T01:06:21;58.03;;;22.60;;
22557;SDS011;11445;53.816;8.902;2022-12-10T01:08:50;57.80;;;22.35;;
22557;SDS011;11445;53.816;8.902;2022-12-10T01:11:20;62.83;;;23.20;;
22557;SDS011;11445;53.816;8.902;2022-12-10T01:13:50;52.30;;;21.88;;
22557;SDS011;11445;53.816;8.902;2022-12-10T01:16:18;61.25;;;23.02;;
22557;SDS011;11445;53.816;8.902;2022-12-10T01:18:46;56.95;;;22.88;;
22557;SDS011;11445;53.816;8.902;2022-12-10T01:21:14;49.25;;;20.88;;
22557;SDS011;11445;53.816;8.902;2022-12-10T01:23:44;57.85;;;22.98;;
22557;SDS011;11445;53.816;8.902;2022-12-10T01:26:14;54.58;;;22.77;;
22557;SDS011;11445;53.816;8.902;2022-12-10T01:28:43;53.03;;;22.20;;
22557;SDS011;11445;53.816;8.902;2022-12-10T01:31:12;52.25;;;22.05;;
22557;SDS011;11445;53.816;8.902;2022-12-10T01:33:40;56.03;;;22.77;;
22557;SDS011;11445;53.816;8.902;2022-12-10T01:36:08;53.10;;;22.98;;
22557;SDS011;11445;53.816;8.902;2022-12-10T01:38:37;58.95;;;23.42;;
22557;SDS011;11445;53.816;8.902;2022-12-10T01:41:06;59.47;;;23.63;;
22557;SDS011;11445;53.816;8.902;2022-12-10T01:43:53;58.60;;;22.98;;
22557;SDS011;11445;53.816;8.902;2022-12-10T01:46:22;57.42;;;23.75;;
22557;SDS011;11445;53.816;8.902;2022-12-10T01:48:51;55.40;;;23.17;;
22557;SDS011;11445;53.816;8.902;2022-12-10T01:51:19;53.63;;;22.23;;
22557;SDS011;11445;53.816;8.902;2022-12-10T01:53:46;56.13;;;23.98;;
22557;SDS011;11445;53.816;8.902;2022-12-10T01:56:16;56.20;;;22.73;;
22557;SDS011;11445;53.816;8.902;2022-12-10T01:58:44;57.42;;;22.85;;
22557;SDS011;11445;53.816;8.902;2022-12-10T02:01:14;53.10;;;21.85;;
22557;SDS011;11445;53.816;8.902;2022-12-10T02:03:51;55.28;;;21.98;;
22557;SDS011;11445;53.816;8.902;2022-12-10T02:06:25;56.20;;;22.52;;
22557;SDS011;11445;53.816;8.902;2022-12-10T02:09:03;53.75;;;22.83;;
22557;SDS011;11445;53.816;8.902;2022-12-10T02:11:39;56.47;;;24.33;;
22557;SDS011;11445;53.816;8.902;2022-12-10T02:14:11;57.08;;;24.00;;
22557;SDS011;11445;53.816;8.902;2022-12-10T02:16:44;51.90;;;24.13;;
22557;SDS011;11445;53.816;8.902;2022-12-10T02:19:18;53.53;;;22.65;;
22557;SDS011;11445;53.816;8.902;2022-12-10T02:21:50;54.65;;;22.08;;
22557;SDS011;11445;53.816;8.902;2022-12-10T02:24:20;54.30;;;22.73;;
22557;SDS011;11445;53.816;8.902;2022-12-10T02:27:00;55.28;;;23.50;;
22557;SDS011;11445;53.816;8.902;2022-12-10T02:29:34;53.75;;;22.83;;
22557;SDS011;11445;53.816;8.902;2022-12-10T02:32:03;58.08;;;23.60;;
22557;SDS011;11445;53.816;8.902;2022-12-10T02:34:33;54.53;;;23.33;;
22557;SDS011;11445;53.816;8.902;2022-12-10T02:37:05;57.83;;;22.90;;
22557;SDS011;11445;53.816;8.902;2022-12-10T02:39:35;50.13;;;21.98;;
22557;SDS011;11445;53.816;8.902;2022-12-10T02:42:05;55.70;;;23.73;;
22557;SDS011;11445;53.816;8.902;2022-12-10T02:44:35;52.42;;;22.30;;
22557;SDS011;11445;53.816;8.902;2022-12-10T02:47:04;52.05;;;23.80;;
22557;SDS011;11445;53.816;8.902;2022-12-10T02:49:33;51.47;;;23.50;;
22557;SDS011;11445;53.816;8.902;2022-12-10T02:52:05;54.80;;;22.95;;
22557;SDS011;11445;53.816;8.902;2022-12-10T02:54:38;55.63;;;23.17;;
22557;SDS011;11445;53.816;8.902;2022-12-10T02:57:12;56.92;;;23.85;;
22557;SDS011;11445;53.816;8.902;2022-12-10T02:59:51;52.60;;;23.13;;
22557;SDS011;11445;53.816;8.902;2022-12-10T03:02:43;51.15;;;22.48;;
22557;SDS011;11445;53.816;8.902;2022-12-10T03:05:20;49.45;;;23.67;;
22557;SDS011;11445;53.816;8.902;2022-12-10T03:07:57;50.88;;;22.83;;
22557;SDS011;11445;53.816;8.902;2022-12-10T03:10:31;54.03;;;24.70;;
22557;SDS011;11445;53.816;8.902;2022-12-10T03:13:03;55.78;;;23.52;;
22557;SDS011;11445;53.816;8.902;2022-12-10T03:15:35;53.03;;;23.40;;
22557;SDS011;11445;53.816;8.902;2022-12-10T03:18:04;53.42;;;23.67;;
22557;SDS011;11445;53.816;8.902;2022-12-10T03:20:34;59.72;;;24.30;;
22557;SDS011;11445;53.816;8.902;2022-12-10T03:23:08;56.92;;;22.92;;
22557;SDS011;11445;53.816;8.902;2022-12-10T03:25:36;50.67;;;23.00;;
22557;SDS011;11445;53.816;8.902;2022-12-10T03:28:05;53.60;;;24.38;;
22557;SDS011;11445;53.816;8.902;2022-12-10T03:30:35;56.63;;;24.67;;
22557;SDS011;11445;53.816;8.902;2022-12-10T03:33:04;54.05;;;23.95;;
22557;SDS011;11445;53.816;8.902;2022-12-10T03:35:32;52.00;;;24.40;;
22557;SDS011;11445;53.816;8.902;2022-12-10T03:38:00;50.95;;;23.98;;
22557;SDS011;11445;53.816;8.902;2022-12-10T03:40:28;53.28;;;23.20;;
22557;SDS011;11445;53.816;8.902;2022-12-10T03:42:55;50.67;;;23.70;;
22557;SDS011;11445;53.816;8.902;2022-12-10T03:45:22;53.42;;;25.08;;
22557;SDS011;11445;53.816;8.902;2022-12-10T03:47:50;51.25;;;23.60;;
22557;SDS011;11445;53.816;8.902;2022-12-10T03:50:17;55.05;;;24.52;;
22557;SDS011;11445;53.816;8.902;2022-12-10T03:52:44;54.70;;;24.20;;
22557;SDS011;11445;53.816;8.902;2022-12-10T03:55:11;53.03;;;24.48;;
22557;SDS011;11445;53.816;8.902;2022-12-10T03:57:38;54.10;;;23.98;;
22557;SDS011;11445;53.816;8.902;2022-12-10T04:00:06;54.55;;;23.67;;
22557;SDS011;11445;53.816;8.902;2022-12-10T04:02:34;50.72;;;23.95;;
22557;SDS011;11445;53.816;8.902;2022-12-10T04:05:03;56.47;;;24.45;;
22557;SDS011;11445;53.816;8.902;2022-12-10T04:07:31;52.88;;;24.33;;
22557;SDS011;11445;53.816;8.902;2022-12-10T04:09:58;51.70;;;23.55;;
22557;SDS011;11445;53.816;8.902;2022-12-10T04:12:25;48.05;;;23.05;;
22557;SDS011;11445;53.816;8.902;2022-12-10T04:14:52;58.53;;;25.13;;
22557;SDS011;11445;53.816;8.902;2022-12-10T04:17:37;52.38;;;23.70;;
22557;SDS011;11445;53.816;8.902;2022-12-10T04:20:06;52.72;;;23.70;;
22557;SDS011;11445;53.816;8.902;2022-12-10T04:22:53;52.50;;;23.38;;
22557;SDS011;11445;53.816;8.902;2022-12-10T04:25:38;49.08;;;23.00;;
22557;SDS011;11445;53.816;8.902;2022-12-10T04:28:22;43.83;;;22.30;;
22557;SDS011;11445;53.816;8.902;2022-12-10T04:30:49;47.28;;;22.13;;
22557;SDS011;11445;53.816;8.902;2022-12-10T04:33:16;52.80;;;22.75;;
22557;SDS011;11445;53.816;8.902;2022-12-10T04:35:45;51.55;;;22.20;;
22557;SDS011;11445;53.816;8.902;2022-12-10T04:38:12;47.88;;;21.80;;
22557;SDS011;11445;53.816;8.902;2022-12-10T04:40:39;47.67;;;21.95;;
22557;SDS011;11445;53.816;8.902;2022-12-10T04:43:06;43.90;;;21.90;;
22557;SDS011;11445;53.816;8.902;2022-12-10T04:45:33;49.03;;;22.15;;
22557;SDS011;11445;53.816;8.902;2022-12-10T04:48:00;46.55;;;21.48;;
22557;SDS011;11445;53.816;8.902;2022-12-10T04:50:27;49.00;;;21.85;;
22557;SDS011;11445;53.816;8.902;2022-12-10T04:52:56;46.85;;;21.58;;
22557;SDS011;11445;53.816;8.902;2022-12-10T04:55:23;47.03;;;20.95;;
22557;SDS011;11445;53.816;8.902;2022-12-10T04:57:50;45.25;;;21.25;;
22557;SDS011;11445;53.816;8.902;2022-12-10T05:00:17;50.92;;;21.58;;
22557;SDS011;11445;53.816;8.902;2022-12-10T05:02:44;45.55;;;20.75;;
22557;SDS011;11445;53.816;8.902;2022-12-10T05:05:14;45.60;;;21.23;;
22557;SDS011;11445;53.816;8.902;2022-12-10T05:07:42;50.72;;;21.67;;
22557;SDS011;11445;53.816;8.902;2022-12-10T05:10:10;49.85;;;21.33;;
22557;SDS011;11445;53.816;8.902;2022-12-10T05:12:37;45.40;;;20.60;;
22557;SDS011;11445;53.816;8.902;2022-12-10T05:15:04;48.28;;;22.13;;
22557;SDS011;11445;53.816;8.902;2022-12-10T05:17:32;46.67;;;21.80;;
22557;SDS011;11445;53.816;8.902;2022-12-10T05:19:59;50.22;;;23.17;;
22557;SDS011;11445;53.816;8.902;2022-12-10T05:22:26;51.80;;;21.10;;
22557;SDS011;11445;53.816;8.902;2022-12-10T05:25:12;49.17;;;21.67;;
22557;SDS011;11445;53.816;8.902;2022-12-10T05:27:39;44.05;;;20.92;;
22557;SDS011;11445;53.816;8.902;2022-12-10T05:30:06;42.75;;;20.02;;
22557;SDS011;11445;53.816;8.902;2022-12-10T05:32:35;43.90;;;20.55;;
22557;SDS011;11445;53.816;8.902;2022-12-10T05:35:02;51.60;;;22.55;;
22557;SDS011;11445;53.816;8.902;2022-12-10T05:37:30;44.78;;;20.90;;
22557;SDS011;11445;53.816;8.902;2022-12-10T05:39:57;45.60;;;21.65;;
22557;SDS011;11445;53.816;8.902;2022-12-10T05:42:25;45.17;;;21.38;;
22557;SDS011;11445;53.816;8.902;2022-12-10T05:44:52;45.90;;;21.75;;
22557;SDS011;11445;53.816;8.902;2022-12-10T05:47:19;43.17;;;20.65;;
22557;SDS011;11445;53.816;8.902;2022-12-10T05:49:46;47.35;;;20.88;;
22557;SDS011;11445;53.816;8.902;2022-12-10T05:52:14;47.00;;;20.25;;
22557;SDS011;11445;53.816;8.902;2022-12-10T05:54:41;41.03;;;20.60;;
22557;SDS011;11445;53.816;8.902;2022-12-10T05:57:08;44.30;;;19.88;;
22557;SDS011;11445;53.816;8.902;2022-12-10T05:59:36;44.83;;;20.60;;
22557;SDS011;11445;53.816;8.902;2022-12-10T06:02:04;37.63;;;18.42;;
22557;SDS011;11445;53.816;8.902;2022-12-10T06:04:31;40.28;;;19.88;;
22557;SDS011;11445;53.816;8.902;2022-12-10T06:06:58;43.42;;;19.15;;
22557;SDS011;11445;53.816;8.902;2022-12-10T06:09:25;44.85;;;19.83;;
22557;SDS011;11445;53.816;8.902;2022-12-10T06:11:52;38.10;;;18.63;;
22557;SDS011;11445;53.816;8.902;2022-12-10T06:14:19;43.83;;;19.60;;
22557;SDS011;11445;53.816;8.902;2022-12-10T06:16:48;43.75;;;19.67;;
22557;SDS011;11445;53.816;8.902;2022-12-10T06:19:15;39.90;;;18.73;;
22557;SDS011;11445;53.816;8.902;2022-12-10T06:21:42;40.38;;;18.58;;
22557;SDS011;11445;53.816;8.902;2022-12-10T06:24:09;41.35;;;19.23;;
22557;SDS011;11445;53.816;8.902;2022-12-10T06:26:36;37.72;;;19.17;;
22557;SDS011;11445;53.816;8.902;2022-12-10T06:29:03;40.38;;;18.90;;
22557;SDS011;11445;53.816;8.902;2022-12-10T06:31:30;39.65;;;18.88;;
22557;SDS011;11445;53.816;8.902;2022-12-10T06:33:59;38.45;;;18.27;;
22557;SDS011;11445;53.816;8.902;2022-12-10T06:36:26;37.58;;;18.88;;
22557;SDS011;11445;53.816;8.902;2022-12-10T06:38:53;38.42;;;18.20;;
22557;SDS011;11445;53.816;8.902;2022-12-10T06:41:20;42.08;;;19.55;;
22557;SDS011;11445;53.816;8.902;2022-12-10T06:43:48;42.38;;;18.92;;
22557;SDS011;11445;53.816;8.902;2022-12-10T06:46:16;37.42;;;18.13;;
22557;SDS011;11445;53.816;8.902;2022-12-10T06:48:44;41.28;;;18.73;;
22557;SDS011;11445;53.816;8.902;2022-12-10T06:51:13;39.08;;;17.85;;
22557;SDS011;11445;53.816;8.902;2022-12-10T06:53:40;39.72;;;18.23;;
22557;SDS011;11445;53.816;8.902;2022-12-10T06:56:07;48.58;;;20.17;;
22557;SDS011;11445;53.816;8.902;2022-12-10T06:58:39;48.83;;;20.08;;
22557;SDS011;11445;53.816;8.902;2022-12-10T07:01:07;42.72;;;20.67;;
22557;SDS011;11445;53.816;8.902;2022-12-10T07:03:36;41.33;;;19.80;;
22557;SDS011;11445;53.816;8.902;2022-12-10T07:06:04;49.33;;;20.70;;
22557;SDS011;11445;53.816;8.902;2022-12-10T07:08:34;42.05;;;20.40;;
22557;SDS011;11445;53.816;8.902;2022-12-10T07:11:02;42.50;;;20.17;;
22557;SDS011;11445;53.816;8.902;2022-12-10T07:13:30;43.17;;;18.70;;
22557;SDS011;11445;53.816;8.902;2022-12-10T07:15:57;40.95;;;18.85;;
22557;SDS011;11445;53.816;8.902;2022-12-10T07:18:24;43.90;;;20.73;;
22557;SDS011;11445;53.816;8.902;2022-12-10T07:20:52;42.28;;;19.38;;
22557;SDS011;11445;53.816;8.902;2022-12-10T07:23:19;37.45;;;18.23;;
22557;SDS011;11445;53.816;8.902;2022-12-10T07:25:48;38.78;;;18.75;;
22557;SDS011;11445;53.816;8.902;2022-12-10T07:28:15;40.20;;;18.90;;
22557;SDS011;11445;53.816;8.902;2022-12-10T07:30:42;40.25;;;19.50;;
22557;SDS011;11445;53.816;8.902;2022-12-10T07:33:09;37.13;;;18.85;;
22557;SDS011;11445;53.816;8.902;2022-12-10T07:35:37;41.55;;;19.25;;
22557;SDS011;11445;53.816;8.902;2022-12-10T07:38:04;41.47;;;19.90;;
22557;SDS011;11445;53.816;8.902;2022-12-10T07:40:31;40.67;;;18.80;;
22557;SDS011;11445;53.816;8.902;2022-12-10T07:43:00;38.10;;;19.33;;
22557;SDS011;11445;53.816;8.902;2022-12-10T07:45:27;39.78;;;19.23;;
22557;SDS011;11445;53.816;8.902;2022-12-10T07:47:54;37.17;;;18.33;;
22557;SDS011;11445;53.816;8.902;2022-12-10T07:50:21;38.00;;;18.88;;
22557;SDS011;11445;53.816;8.902;2022-12-10T07:52:48;39.95;;;19.00;;
22557;SDS011;11445;53.816;8.902;2022-12-10T07:55:15;37.75;;;18.73;;
22557;SDS011;11445;53.816;8.902;2022-12-10T07:57:42;41.97;;;19.73;;
22557;SDS011;11445;53.816;8.902;2022-12-10T08:00:11;38.80;;;18.75;;
22557;SDS011;11445;53.816;8.902;2022-12-10T08:02:39;42.78;;;19.20;;
22557;SDS011;11445;53.816;8.902;2022-12-10T08:05:06;35.67;;;18.65;;
22557;SDS011;11445;53.816;8.902;2022-12-10T08:07:33;38.00;;;19.48;;
22557;SDS011;11445;53.816;8.902;2022-12-10T08:10:01;38.35;;;19.10;;
22557;SDS011;11445;53.816;8.902;2022-12-10T08:12:28;40.08;;;19.65;;
22557;SDS011;11445;53.816;8.902;2022-12-10T08:14:55;41.03;;;19.42;;
22557;SDS011;11445;53.816;8.902;2022-12-10T08:17:23;36.03;;;17.80;;
22557;SDS011;11445;53.816;8.902;2022-12-10T08:19:50;42.38;;;19.75;;
22557;SDS011;11445;53.816;8.902;2022-12-10T08:22:19;41.15;;;19.85;;
22557;SDS011;11445;53.816;8.902;2022-12-10T08:24:46;43.20;;;19.13;;
22557;SDS011;11445;53.816;8.902;2022-12-10T08:27:13;38.47;;;19.50;;
22557;SDS011;11445;53.816;8.902;2022-12-10T08:29:40;40.00;;;18.75;;
22557;SDS011;11445;53.816;8.902;2022-12-10T08:32:07;39.28;;;18.33;;
22557;SDS011;11445;53.816;8.902;2022-12-10T08:34:36;37.13;;;19.88;;
22557;SDS011;11445;53.816;8.902;2022-12-10T08:37:03;35.53;;;18.13;;
22557;SDS011;11445;53.816;8.902;2022-12-10T08:39:30;37.63;;;17.98;;
22557;SDS011;11445;53.816;8.902;2022-12-10T08:41:58;39.33;;;18.48;;
22557;SDS011;11445;53.816;8.902;2022-12-10T08:44:25;39.08;;;17.30;;
22557;SDS011;11445;53.816;8.902;2022-12-10T08:46:52;34.55;;;17.30;;
22557;SDS011;11445;53.816;8.902;2022-12-10T08:49:19;32.78;;;16.25;;
22557;SDS011;11445;53.816;8.902;2022-12-10T08:51:48;38.22;;;18.35;;
22557;SDS011;11445;53.816;8.902;2022-12-10T08:54:15;37.13;;;17.65;;
22557;SDS011;11445;53.816;8.902;2022-12-10T08:56:42;40.75;;;18.58;;
22557;SDS011;11445;53.816;8.902;2022-12-10T08:59:09;36.08;;;17.90;;
22557;SDS011;11445;53.816;8.902;2022-12-10T09:01:36;41.40;;;18.95;;
22557;SDS011;11445;53.816;8.902;2022-12-10T09:04:03;32.78;;;17.27;;
22557;SDS011;11445;53.816;8.902;2022-12-10T09:06:30;32.90;;;17.23;;
22557;SDS011;11445;53.816;8.902;2022-12-10T09:08:58;36.55;;;17.83;;
22557;SDS011;11445;53.816;8.902;2022-12-10T09:11:27;38.75;;;18.52;;
22557;SDS011;11445;53.816;8.902;2022-12-10T09:13:55;34.28;;;17.65;;
22557;SDS011;11445;53.816;8.902;2022-12-10T09:16:27;33.22;;;16.80;;
22557;SDS011;11445;53.816;8.902;2022-12-10T09:18:54;37.78;;;16.75;;
22557;SDS011;11445;53.816;8.902;2022-12-10T09:21:21;34.03;;;17.67;;
22557;SDS011;11445;53.816;8.902;2022-12-10T09:23:49;36.60;;;18.10;;
22557;SDS011;11445;53.816;8.902;2022-12-10T09:26:18;38.28;;;17.75;;
22557;SDS011;11445;53.816;8.902;2022-12-10T09:28:46;31.42;;;16.48;;
22557;SDS011;11445;53.816;8.902;2022-12-10T09:31:13;34.50;;;17.40;;
22557;SDS011;11445;53.816;8.902;2022-12-10T09:33:42;35.17;;;16.77;;
22557;SDS011;11445;53.816;8.902;2022-12-10T09:36:11;31.83;;;16.40;;
22557;SDS011;11445;53.816;8.902;2022-12-10T09:38:40;30.52;;;15.60;;
22557;SDS011;11445;53.816;8.902;2022-12-10T09:41:13;34.25;;;16.80;;
22557;SDS011;11445;53.816;8.902;2022-12-10T09:43:55;31.60;;;16.83;;
22557;SDS011;11445;53.816;8.902;2022-12-10T09:46:31;31.95;;;17.00;;
22557;SDS011;11445;53.816;8.902;2022-12-10T09:49:11;28.30;;;15.52;;
22557;SDS011;11445;53.816;8.902;2022-12-10T09:51:45;38.15;;;17.50;;
22557;SDS011;11445;53.816;8.902;2022-12-10T09:54:15;33.22;;;16.67;;
22557;SDS011;11445;53.816;8.902;2022-12-10T09:56:50;30.92;;;16.08;;
22557;SDS011;11445;53.816;8.902;2022-12-10T09:59:19;32.65;;;16.50;;
22557;SDS011;11445;53.816;8.902;2022-12-10T10:01:50;35.55;;;16.60;;
22557;SDS011;11445;53.816;8.902;2022-12-10T10:04:28;31.40;;;15.95;;
22557;SDS011;11445;53.816;8.902;2022-12-10T10:06:55;29.92;;;15.35;;
22557;SDS011;11445;53.816;8.902;2022-12-10T10:09:23;31.05;;;16.35;;
22557;SDS011;11445;53.816;8.902;2022-12-10T10:11:52;30.40;;;16.90;;
22557;SDS011;11445;53.816;8.902;2022-12-10T10:14:20;30.73;;;16.00;;
22557;SDS011;11445;53.816;8.902;2022-12-10T10:16:53;27.70;;;16.00;;
22557;SDS011;11445;53.816;8.902;2022-12-10T10:19:26;33.13;;;16.63;;
22557;SDS011;11445;53.816;8.902;2022-12-10T10:21:55;30.65;;;15.23;;
22557;SDS011;11445;53.816;8.902;2022-12-10T10:24:24;34.25;;;17.75;;
22557;SDS011;11445;53.816;8.902;2022-12-10T10:27:08;31.45;;;17.13;;
22557;SDS011;11445;53.816;8.902;2022-12-10T10:29:39;31.88;;;15.70;;
22557;SDS011;11445;53.816;8.902;2022-12-10T10:32:15;30.98;;;15.63;;
22557;SDS011;11445;53.816;8.902;2022-12-10T10:34:44;27.98;;;15.00;;
22557;SDS011;11445;53.816;8.902;2022-12-10T10:37:23;28.27;;;14.85;;
22557;SDS011;11445;53.816;8.902;2022-12-10T10:39:53;27.83;;;14.32;;
22557;SDS011;11445;53.816;8.902;2022-12-10T10:42:27;18.60;;;11.15;;
22557;SDS011;11445;53.816;8.902;2022-12-10T10:44:59;28.35;;;13.38;;
22557;SDS011;11445;53.816;8.902;2022-12-10T10:47:30;26.58;;;14.32;;
22557;SDS011;11445;53.816;8.902;2022-12-10T10:49:58;23.08;;;12.90;;
22557;SDS011;11445;53.816;8.902;2022-12-10T10:52:27;20.80;;;12.07;;
22557;SDS011;11445;53.816;8.902;2022-12-10T10:54:56;21.77;;;12.98;;
22557;SDS011;11445;53.816;8.902;2022-12-10T10:57:25;23.70;;;13.60;;
22557;SDS011;11445;53.816;8.902;2022-12-10T11:00:00;25.15;;;13.20;;
22557;SDS011;11445;53.816;8.902;2022-12-10T11:02:32;26.75;;;13.73;;
22557;SDS011;11445;53.816;8.902;2022-12-10T11:05:04;26.77;;;14.30;;
22557;SDS011;11445;53.816;8.902;2022-12-10T11:07:34;29.45;;;15.05;;
22557;SDS011;11445;53.816;8.902;2022-12-10T11:10:02;27.90;;;13.90;;
22557;SDS011;11445;53.816;8.902;2022-12-10T11:12:43;31.38;;;15.35;;
22557;SDS011;11445;53.816;8.902;2022-12-10T11:15:33;28.23;;;14.85;;
22557;SDS011;11445;53.816;8.902;2022-12-10T11:18:01;27.88;;;14.48;;
22557;SDS011;11445;53.816;8.902;2022-12-10T11:20:31;29.63;;;15.90;;
22557;SDS011;11445;53.816;8.902;2022-12-10T11:23:00;27.58;;;14.68;;
22557;SDS011;11445;53.816;8.902;2022-12-10T11:25:36;29.00;;;15.50;;
22557;SDS011;11445;53.816;8.902;2022-12-10T11:28:17;32.33;;;15.73;;
22557;SDS011;11445;53.816;8.902;2022-12-10T11:30:57;30.70;;;16.02;;
22557;SDS011;11445;53.816;8.902;2022-12-10T11:33:39;32.50;;;17.10;;
22557;SDS011;11445;53.816;8.902;2022-12-10T11:36:18;30.02;;;14.98;;
22557;SDS011;11445;53.816;8.902;2022-12-10T11:38:54;28.30;;;15.02;;
22557;SDS011;11445;53.816;8.902;2022-12-10T11:41:30;26.85;;;13.93;;
22557;SDS011;11445;53.816;8.902;2022-12-10T11:44:10;27.05;;;15.15;;
22557;SDS011;11445;53.816;8.902;2022-12-10T11:46:49;34.25;;;17.13;;
22557;SDS011;11445;53.816;8.902;2022-12-10T11:49:26;27.30;;;14.10;;
22557;SDS011;11445;53.816;8.902;2022-12-10T11:52:04;27.33;;;14.18;;
22557;SDS011;11445;53.816;8.902;2022-12-10T11:57:30;26.60;;;15.07;;
22557;SDS011;11445;53.816;8.902;2022-12-10T12:00:15;25.67;;;15.23;;
22557;SDS011;11445;53.816;8.902;2022-12-10T12:02:50;29.65;;;15.82;;
22557;SDS011;11445;53.816;8.902;2022-12-10T12:05:52;25.90;;;14.68;;
22557;SDS011;11445;53.816;8.902;2022-12-10T12:08:29;27.58;;;15.52;;
22557;SDS011;11445;53.816;8.902;2022-12-10T12:11:13;33.55;;;14.90;;
22557;SDS011;11445;53.816;8.902;2022-12-10T12:13:54;28.45;;;15.52;;
22557;SDS011;11445;53.816;8.902;2022-12-10T12:18:57;24.70;;;13.90;;
22557;SDS011;11445;53.816;8.902;2022-12-10T12:21:28;27.55;;;14.48;;
22557;SDS011;11445;53.816;8.902;2022-12-10T12:23:57;24.63;;;14.55;;
22557;SDS011;11445;53.816;8.902;2022-12-10T12:28:59;28.25;;;14.20;;
22557;SDS011;11445;53.816;8.902;2022-12-10T12:31:37;24.08;;;13.13;;
22557;SDS011;11445;53.816;8.902;2022-12-10T12:34:11;25.05;;;14.07;;
22557;SDS011;11445;53.816;8.902;2022-12-10T12:36:44;24.42;;;13.52;;
22557;SDS011;11445;53.816;8.902;2022-12-10T12:39:13;25.38;;;13.52;;
22557;SDS011;11445;53.816;8.902;2022-12-10T12:41:48;23.10;;;12.77;;
22557;SDS011;11445;53.816;8.902;2022-12-10T12:44:22;21.63;;;12.00;;
22557;SDS011;11445;53.816;8.902;2022-12-10T12:46:57;25.77;;;14.02;;
22557;SDS011;11445;53.816;8.902;2022-12-10T12:49:31;29.25;;;14.07;;
22557;SDS011;11445;53.816;8.902;2022-12-10T12:52:02;33.50;;;13.57;;
22557;SDS011;11445;53.816;8.902;2022-12-10T12:54:33;30.20;;;13.90;;
22557;SDS011;11445;53.816;8.902;2022-12-10T12:57:03;24.55;;;13.55;;
22557;SDS011;11445;53.816;8.902;2022-12-10T12:59:35;23.27;;;13.68;;
22557;SDS011;11445;53.816;8.902;2022-12-10T13:02:20;26.10;;;13.65;;
22557;SDS011;11445;53.816;8.902;2022-12-10T13:05:03;21.67;;;12.98;;
22557;SDS011;11445;53.816;8.902;2022-12-10T13:07:34;22.75;;;13.27;;
22557;SDS011;11445;53.816;8.902;2022-12-10T13:10:16;27.17;;;13.30;;
22557;SDS011;11445;53.816;8.902;2022-12-10T13:12:49;27.70;;;14.90;;
22557;SDS011;11445;53.816;8.902;2022-12-10T13:15:19;30.25;;;15.55;;
22557;SDS011;11445;53.816;8.902;2022-12-10T13:18:03;25.60;;;13.73;;
22557;SDS011;11445;53.816;8.902;2022-12-10T13:20:46;26.95;;;13.07;;
22557;SDS011;11445;53.816;8.902;2022-12-10T13:23:28;28.95;;;13.65;;
22557;SDS011;11445;53.816;8.902;2022-12-10T13:25:57;24.85;;;12.95;;
22557;SDS011;11445;53.816;8.902;2022-12-10T13:28:27;26.20;;;12.98;;
22557;SDS011;11445;53.816;8.902;2022-12-10T13:31:06;27.08;;;13.45;;
22557;SDS011;11445;53.816;8.902;2022-12-10T13:33:51;28.13;;;13.48;;
22557;SDS011;11445;53.816;8.902;2022-12-10T13:36:34;25.63;;;13.45;;
22557;SDS011;11445;53.816;8.902;2022-12-10T13:41:39;26.08;;;13.52;;
22557;SDS011;11445;53.816;8.902;2022-12-10T13:44:32;31.55;;;15.35;;
22557;SDS011;11445;53.816;8.902;2022-12-10T13:49:53;30.63;;;14.63;;
22557;SDS011;11445;53.816;8.902;2022-12-10T13:52:25;29.02;;;14.60;;
22557;SDS011;11445;53.816;8.902;2022-12-10T13:55:02;36.25;;;15.55;;
22557;SDS011;11445;53.816;8.902;2022-12-10T13:57:48;26.30;;;14.65;;
22557;SDS011;11445;53.816;8.902;2022-12-10T14:00:23;29.50;;;15.25;;
22557;SDS011;11445;53.816;8.902;2022-12-10T14:06:15;26.10;;;14.65;;
22557;SDS011;11445;53.816;8.902;2022-12-10T14:08:52;28.83;;;15.18;;
22557;SDS011;11445;53.816;8.902;2022-12-10T14:11:23;30.50;;;15.93;;
22557;SDS011;11445;53.816;8.902;2022-12-10T14:13:55;29.25;;;15.45;;
22557;SDS011;11445;53.816;8.902;2022-12-10T14:16:24;27.27;;;14.48;;
22557;SDS011;11445;53.816;8.902;2022-12-10T14:18:55;33.25;;;14.35;;
22557;SDS011;11445;53.816;8.902;2022-12-10T14:21:27;24.70;;;14.15;;
22557;SDS011;11445;53.816;8.902;2022-12-10T14:26:26;30.10;;;13.20;;
22557;SDS011;11445;53.816;8.902;2022-12-10T14:28:55;24.83;;;12.40;;
22557;SDS011;11445;53.816;8.902;2022-12-10T14:31:26;23.83;;;12.32;;
22557;SDS011;11445;53.816;8.902;2022-12-10T14:33:57;24.17;;;12.75;;
22557;SDS011;11445;53.816;8.902;2022-12-10T14:36:29;24.63;;;13.13;;
22557;SDS011;11445;53.816;8.902;2022-12-10T14:38:59;23.60;;;12.65;;
22557;SDS011;11445;53.816;8.902;2022-12-10T14:41:28;28.02;;;13.02;;
22557;SDS011;11445;53.816;8.902;2022-12-10T14:43:57;29.30;;;13.80;;
22557;SDS011;11445;53.816;8.902;2022-12-10T14:46:29;26.20;;;14.02;;
22557;SDS011;11445;53.816;8.902;2022-12-10T14:48:57;26.95;;;14.18;;
22557;SDS011;11445;53.816;8.902;2022-12-10T14:51:25;26.23;;;13.68;;
22557;SDS011;11445;53.816;8.902;2022-12-10T14:53:59;31.17;;;15.68;;
22557;SDS011;11445;53.816;8.902;2022-12-10T14:56:27;27.27;;;14.40;;
22557;SDS011;11445;53.816;8.902;2022-12-10T14:59:01;32.60;;;16.37;;
22557;SDS011;11445;53.816;8.902;2022-12-10T15:01:34;34.13;;;17.13;;